createdAt,value
2024-03-15T00:02:55.809Z,39.60
2024-03-15T00:07:58.731Z,46.40
2024-03-15T00:13:04.545Z,43.70
2024-03-15T00:18:08.949Z,44.20
2024-03-15T00:23:12.491Z,46.60
2024-03-15T00:28:15.350Z,47.70
2024-03-15T00:33:22.853Z,41.50
2024-03-15T00:38:25.704Z,44.50
2024-03-15T00:43:29.050Z,45.20
2024-03-15T00:48:32.042Z,46.00
2024-03-15T00:53:35.867Z,49.60
2024-03-15T00:58:40.095Z,47.50
2024-03-15T01:03:43.021Z,45.40
2024-03-15T01:08:46.184Z,48.00
2024-03-15T01:13:55.281Z,47.30
2024-03-15T01:18:58.791Z,51.10
2024-03-15T01:24:01.735Z,45.80
2024-03-15T01:29:04.574Z,45.30
2024-03-15T01:34:07.482Z,42.60
2024-03-15T01:39:10.463Z,44.50
2024-03-15T01:44:15.068Z,47.00
2024-03-15T01:49:18.448Z,52.90
2024-03-15T01:54:21.291Z,51.10
2024-03-15T01:59:26.178Z,49.00
2024-03-15T02:04:29.002Z,51.10
2024-03-15T02:09:31.933Z,50.70
2024-03-15T02:14:35.174Z,44.70
2024-03-15T02:19:38.288Z,53.60
2024-03-15T02:24:42.034Z,50.50
2024-03-15T02:29:46.461Z,48.60
2024-03-15T02:34:52.118Z,52.70
2024-03-15T02:39:55.075Z,53.30
2024-03-15T02:44:58.089Z,49.00
2024-03-15T02:50:01.237Z,48.00
2024-03-15T02:55:05.696Z,52.70
2024-03-15T03:00:11.344Z,53.00
2024-03-15T03:05:14.280Z,53.50
2024-03-15T03:10:17.111Z,53.60
2024-03-15T03:15:21.431Z,51.20
2024-03-15T03:20:25.260Z,52.70
2024-03-15T03:25:28.433Z,53.90
2024-03-15T03:30:31.558Z,51.80
2024-03-15T03:35:34.695Z,50.90
2024-03-15T03:40:38.373Z,49.80
2024-03-15T03:45:48.430Z,51.60
2024-03-15T03:50:52.076Z,51.20
2024-03-15T03:55:54.983Z,51.70
2024-03-15T04:01:00.437Z,49.40
2024-03-15T04:06:03.850Z,55.10
2024-03-15T04:11:06.795Z,60.10
2024-03-15T04:16:09.836Z,52.30
2024-03-15T04:21:13.512Z,50.50
2024-03-15T04:26:16.988Z,48.10
2024-03-15T04:31:22.103Z,55.40
2024-03-15T04:36:25.734Z,52.70
2024-03-15T04:41:29.004Z,54.10
2024-03-15T04:46:32.003Z,54.70
2024-03-15T04:51:35.233Z,51.50
2024-03-15T04:56:38.054Z,52.80
2024-03-15T05:01:40.910Z,55.70
2024-03-15T05:06:44.943Z,52.70
2024-03-15T05:11:48.012Z,57.70
2024-03-15T05:16:57.550Z,55.70
2024-03-15T05:22:01.141Z,55.30
2024-03-15T05:27:04.533Z,56.20
2024-03-15T05:32:08.382Z,54.00
2024-03-15T05:37:11.432Z,51.50
2024-03-15T05:42:14.444Z,53.70
2024-03-15T05:47:18.011Z,56.40
2024-03-15T05:52:21.739Z,56.80
2024-03-15T05:57:28.202Z,54.30
2024-03-15T06:02:31.265Z,58.30
2024-03-15T06:07:35.696Z,58.30
2024-03-15T06:12:38.698Z,60.00
2024-03-15T06:17:42.504Z,86.30
2024-03-15T06:22:49.032Z,49.80
2024-03-15T06:27:52.279Z,49.00
2024-03-15T06:33:00.444Z,57.00
2024-03-15T06:38:18.419Z,63.40
2024-03-15T06:43:36.964Z,56.60
2024-03-15T06:48:46.254Z,50.80
2024-03-15T06:53:49.267Z,47.60
2024-03-15T06:58:52.106Z,58.90
2024-03-15T07:03:56.940Z,54.50
2024-03-15T07:09:00.714Z,59.10
2024-03-15T07:14:05.926Z,47.50
2024-03-15T07:19:09.409Z,47.50
2024-03-15T07:24:12.755Z,47.70
2024-03-15T07:29:15.916Z,49.70
2024-03-15T07:34:19.175Z,51.90
2024-03-15T07:39:24.529Z,52.60
2024-03-15T07:44:29.164Z,50.30
2024-03-15T07:49:32.070Z,50.40
2024-03-15T07:54:35.421Z,57.70
2024-03-15T07:59:38.606Z,51.90
2024-03-15T08:04:46.796Z,48.10
2024-03-15T08:09:50.187Z,52.60
2024-03-15T08:14:53.487Z,43.00
2024-03-15T08:19:56.735Z,48.30
2024-03-15T08:24:59.700Z,46.40
2024-03-15T08:30:05.450Z,45.50
2024-03-15T08:35:09.391Z,45.80
2024-03-15T08:40:14.557Z,46.60
2024-03-15T08:45:18.653Z,37.90
2024-03-15T08:50:38.016Z,40.30
2024-03-15T08:55:43.759Z,42.80
2024-03-15T09:00:50.014Z,41.50
2024-03-15T09:05:53.040Z,42.60
2024-03-15T09:10:55.874Z,42.20
2024-03-15T09:15:59.797Z,36.40
2024-03-15T09:21:02.785Z,38.00
2024-03-15T09:26:08.454Z,42.90
2024-03-15T09:31:24.004Z,39.80
2024-03-15T09:36:35.210Z,40.50
2024-03-15T09:41:39.661Z,39.40
2024-03-15T09:46:43.624Z,36.90
2024-03-15T09:51:51.497Z,39.30
2024-03-15T09:56:55.052Z,34.90
2024-03-15T10:01:58.296Z,39.50
2024-03-15T10:07:03.030Z,39.40
2024-03-15T10:12:06.375Z,38.10
2024-03-15T10:17:11.196Z,36.20
2024-03-15T10:22:14.166Z,39.80
2024-03-15T10:27:17.783Z,41.20
2024-03-15T10:32:20.830Z,39.30
2024-03-15T10:37:24.294Z,37.50
2024-03-15T10:42:27.707Z,37.90
2024-03-15T10:47:30.984Z,36.00
2024-03-15T10:52:35.380Z,37.20
2024-03-15T10:57:39.660Z,33.70
2024-03-15T11:02:46.332Z,34.00
2024-03-15T11:08:01.830Z,36.80
2024-03-15T11:13:05.426Z,36.90
2024-03-15T11:18:10.563Z,37.50
2024-03-15T11:23:18.627Z,37.70
2024-03-15T11:28:23.167Z,34.00
2024-03-15T11:33:27.473Z,39.00
2024-03-15T11:38:30.732Z,35.30
2024-03-15T11:43:34.237Z,36.10
2024-03-15T11:48:37.410Z,37.00
2024-03-15T11:53:40.439Z,33.00
2024-03-15T11:58:43.308Z,35.50
2024-03-15T12:03:46.983Z,29.90
2024-03-15T12:08:50.615Z,34.30
2024-03-15T12:14:01.055Z,37.00
2024-03-15T12:19:04.313Z,30.90
2024-03-15T12:24:08.730Z,31.40
2024-03-15T12:29:11.645Z,31.70
2024-03-15T12:34:14.592Z,28.10
2024-03-15T12:39:17.504Z,26.60
2024-03-15T12:44:20.639Z,27.90
2024-03-15T12:49:57.759Z,25.60
2024-03-15T12:55:01.090Z,29.90
2024-03-15T13:00:07.814Z,26.70
2024-03-15T13:05:15.634Z,23.90
2024-03-15T13:10:20.738Z,26.50
2024-03-15T13:15:24.307Z,22.70
2024-03-15T13:20:27.451Z,23.30
2024-03-15T13:25:36.364Z,26.00
2024-03-15T13:30:41.421Z,21.30
2024-03-15T13:35:44.706Z,22.80
2024-03-15T13:40:48.241Z,20.80
2024-03-15T13:45:58.351Z,21.20
2024-03-15T13:51:01.698Z,24.40
2024-03-15T13:56:11.417Z,20.70
2024-03-15T14:01:19.822Z,22.50
2024-03-15T14:06:22.763Z,21.60
2024-03-15T14:11:25.508Z,23.00
2024-03-15T14:16:28.167Z,23.90
2024-03-15T14:21:30.997Z,20.60
2024-03-15T14:26:37.210Z,20.60
2024-03-15T14:31:39.910Z,22.40
2024-03-15T14:36:42.932Z,19.90
2024-03-15T14:41:45.520Z,19.40
2024-03-15T14:46:48.155Z,19.70
2024-03-15T14:51:50.964Z,20.50
2024-03-15T14:56:53.555Z,17.50
2024-03-15T15:01:56.273Z,27.40
2024-03-15T15:06:59.052Z,17.80
2024-03-15T15:12:02.114Z,22.60
2024-03-15T15:17:08.521Z,23.10
2024-03-15T15:22:11.730Z,26.20
2024-03-15T15:27:18.513Z,23.10
2024-03-15T15:32:21.326Z,28.10
2024-03-15T15:37:23.972Z,20.50
2024-03-15T15:42:28.107Z,21.30
2024-03-15T15:47:31.232Z,26.90
2024-03-15T15:52:35.139Z,22.20
2024-03-15T15:57:41.851Z,22.20
2024-03-15T16:02:45.740Z,21.70
2024-03-15T16:07:48.573Z,21.80
2024-03-15T16:12:51.277Z,20.80
2024-03-15T16:17:54.170Z,19.70
2024-03-15T16:22:58.267Z,23.80
2024-03-15T16:28:01.275Z,22.20
2024-03-15T16:33:07.445Z,18.40
2024-03-15T16:38:11.783Z,21.00
2024-03-15T16:43:14.576Z,17.80
2024-03-15T16:48:19.960Z,18.10
2024-03-15T16:53:24.261Z,21.80
2024-03-15T16:58:29.575Z,16.30
2024-03-15T17:03:34.431Z,21.10
2024-03-15T17:08:38.715Z,19.60
2024-03-15T17:13:41.565Z,19.90
2024-03-15T17:18:46.658Z,23.40
2024-03-15T17:23:50.085Z,25.10
2024-03-15T17:28:52.784Z,25.10
2024-03-15T17:33:55.828Z,35.60
2024-03-15T17:38:58.899Z,26.30
2024-03-15T17:44:01.557Z,24.40
2024-03-15T17:49:04.350Z,22.20
2024-03-15T17:54:07.018Z,24.20
2024-03-15T17:59:09.793Z,23.90
2024-03-15T18:04:12.631Z,27.10
2024-03-15T18:09:15.352Z,32.60
2024-03-15T18:14:18.180Z,32.20
2024-03-15T18:19:20.827Z,42.40
2024-03-15T18:24:23.851Z,30.60
2024-03-15T18:29:28.264Z,27.60
2024-03-15T18:34:30.966Z,47.30
2024-03-15T18:39:34.159Z,30.50
2024-03-15T18:44:36.984Z,31.20
2024-03-15T18:49:43.275Z,26.60
2024-03-15T18:54:49.800Z,29.80
2024-03-15T19:00:01.074Z,27.60
2024-03-15T19:05:05.692Z,31.00
2024-03-15T19:10:09.643Z,29.70
2024-03-15T19:15:12.685Z,30.00
2024-03-15T19:20:16.680Z,29.20
2024-03-15T19:25:20.458Z,29.60
2024-03-15T19:30:23.387Z,27.00
2024-03-15T19:35:26.190Z,28.70
2024-03-15T19:40:28.813Z,32.70
2024-03-15T19:45:31.509Z,28.50
2024-03-15T19:50:35.077Z,31.10
2024-03-15T19:55:39.459Z,30.10
2024-03-15T20:00:42.271Z,32.20
2024-03-15T20:05:47.353Z,28.60
2024-03-15T20:10:50.665Z,29.70
2024-03-15T20:15:55.183Z,27.90
2024-03-15T20:20:57.820Z,29.10
2024-03-15T20:26:00.632Z,35.80
2024-03-15T20:31:05.407Z,31.00
2024-03-15T20:36:08.003Z,33.00
2024-03-15T20:41:11.154Z,30.00
2024-03-15T20:46:16.188Z,34.50
2024-03-15T20:51:21.922Z,29.80
2024-03-15T20:56:26.056Z,32.50
2024-03-15T21:01:28.830Z,37.30
2024-03-15T21:06:34.971Z,32.70
2024-03-15T21:11:38.080Z,36.00
2024-03-15T21:16:41.259Z,34.00
2024-03-15T21:21:44.075Z,32.10
2024-03-15T21:26:47.018Z,31.80
2024-03-15T21:31:50.476Z,36.50
2024-03-15T21:36:54.202Z,35.90
2024-03-15T21:41:58.264Z,38.70
2024-03-15T21:47:00.980Z,36.70
2024-03-15T21:52:05.646Z,35.90
2024-03-15T21:57:08.290Z,34.40
2024-03-15T22:02:15.171Z,32.20
2024-03-15T22:07:18.108Z,30.70
2024-03-15T22:12:20.792Z,37.50
2024-03-15T22:17:23.634Z,39.80
2024-03-15T22:22:26.306Z,38.60
2024-03-15T22:27:29.022Z,40.90
2024-03-15T22:32:31.808Z,41.30
2024-03-15T22:37:34.429Z,46.40
2024-03-15T22:42:37.226Z,40.10
2024-03-15T22:47:40.143Z,38.30
2024-03-15T22:52:44.529Z,38.60
2024-03-15T22:57:47.208Z,44.20
2024-03-15T23:02:54.201Z,38.80
2024-03-15T23:07:57.091Z,40.70
2024-03-15T23:13:02.397Z,44.00
2024-03-15T23:18:07.232Z,45.00
2024-03-15T23:23:10.490Z,41.10
2024-03-15T23:28:13.311Z,40.00
2024-03-15T23:33:18.631Z,45.30
2024-03-15T23:38:21.425Z,40.20
2024-03-15T23:43:24.066Z,39.40
2024-03-15T23:48:28.531Z,44.60
2024-03-15T23:53:31.301Z,41.20
2024-03-15T23:58:33.968Z,45.70
